Time;durP1;ratioP1;P1;durP2;ratioP2;P2;SDS_P1;SDS_P2;PMS_P1;PMS_P2;Temp;Humidity;BMP_temperature;BMP_pressure;BME280_temperature;BME280_humidity;BME280_pressure;Samples;Min_cycle;Max_cycle;Signal;HPM_P1;HPM_P2
2021/06/29 00:00:04;;;;;;;;;;;17.10;99.90;;;;;;4925283;29;20210;-79
2021/06/29 00:02:35;;;;;;;;;;;17.10;99.90;;;;;;4924571;29;19966;-79
2021/06/29 00:05:02;;;;;;;;;;;17.10;99.90;;;;;;4956599;28;19926;-79
2021/06/29 00:07:29;;;;;;;;;;;17.20;99.90;;;;;;4923640;29;20145;-79
2021/06/29 00:09:55;;;;;;;;;;;17.20;99.90;;;;;;4922628;29;19933;-78
2021/06/29 00:12:27;;;;;;;;;;;17.20;99.90;;;;;;4939891;29;19926;-79
2021/06/29 00:14:54;;;;;;;;;;;17.20;99.90;;;;;;4923827;29;20013;-78
2021/06/29 00:17:20;;;;;;;;;;;17.30;99.90;;;;;;4939721;29;20005;-79
2021/06/29 00:19:47;;;;;;;;;;;17.20;99.90;;;;;;4923457;29;20020;-78
2021/06/29 00:22:19;;;;;;;;;;;17.30;99.90;;;;;;4923945;29;19933;-78
2021/06/29 00:24:45;;;;;;;;;;;17.20;99.90;;;;;;4923360;29;20389;-78
2021/06/29 00:27:12;;;;;;;;;;;17.20;99.90;;;;;;4939445;29;19931;-78
2021/06/29 00:29:39;;;;;;;;;;;17.10;99.90;;;;;;4923430;29;20364;-79
2021/06/29 00:32:06;;;;;;;;;;;17.10;99.90;;;;;;4939110;29;19933;-79
2021/06/29 00:34:32;;;;;;;;;;;17.10;99.90;;;;;;4939222;29;20304;-78
2021/06/29 00:36:59;;;;;;;;;;;17.10;99.90;;;;;;4938876;29;20025;-78
2021/06/29 00:39:25;;;;;;;;;;;17.10;99.90;;;;;;4923479;29;19926;-79
2021/06/29 00:41:52;;;;;;;;;;;17.10;99.90;;;;;;4922351;29;20026;-78
2021/06/29 00:44:24;;;;;;;;;;;17.00;99.90;;;;;;4940155;29;19926;-78
2021/06/29 00:46:57;;;;;;;;;;;17.00;99.90;;;;;;4924313;29;19933;-80
2021/06/29 00:49:29;;;;;;;;;;;17.00;99.90;;;;;;4939222;29;20373;-78
2021/06/29 00:52:00;;;;;;;;;;;17.00;99.90;;;;;;4940035;29;19927;-79
2021/06/29 00:54:27;;;;;;;;;;;17.00;99.90;;;;;;4923469;29;20025;-78
2021/06/29 00:56:54;;;;;;;;;;;17.10;99.90;;;;;;4922897;29;19958;-79
2021/06/29 00:59:21;;;;;;;;;;;17.10;99.90;;;;;;4923190;29;19927;-78
2021/06/29 01:01:47;;;;;;;;;;;17.10;99.90;;;;;;4922757;29;19927;-78
2021/06/29 01:04:14;;;;;;;;;;;17.10;99.90;;;;;;4922513;28;19930;-79
2021/06/29 01:06:43;;;;;;;;;;;17.10;99.90;;;;;;4922707;29;19961;-78
2021/06/29 01:09:14;;;;;;;;;;;17.10;99.90;;;;;;4923907;29;19926;-78
2021/06/29 01:11:46;;;;;;;;;;;17.10;99.90;;;;;;4923833;29;20301;-78
2021/06/29 01:14:14;;;;;;;;;;;17.10;99.90;;;;;;4922524;28;20025;-78
2021/06/29 01:16:41;;;;;;;;;;;17.20;99.90;;;;;;4938797;29;20021;-79
2021/06/29 01:19:16;;;;;;;;;;;17.20;99.90;;;;;;4938736;29;20017;-79
2021/06/29 01:21:46;;;;;;;;;;;17.20;99.90;;;;;;4938477;29;20021;-78
2021/06/29 01:24:16;;;;;;;;;;;17.20;99.90;;;;;;4955774;28;19958;-79
2021/06/29 01:27:00;;;;;;;;;;;17.20;99.90;;;;;;4955380;29;19933;-79
2021/06/29 01:32:03;;;;;;;;;;;17.10;99.90;;;;;;4955331;29;20046;-78
2021/06/29 01:34:30;;;;;;;;;;;17.10;99.90;;;;;;4938236;29;19930;-78
2021/06/29 01:36:56;;;;;;;;;;;17.10;99.90;;;;;;4922584;29;20029;-78
2021/06/29 01:39:28;;;;;;;;;;;17.00;99.90;;;;;;4938986;29;19933;-78
2021/06/29 01:41:55;;;;;;;;;;;17.00;99.90;;;;;;4938216;29;19933;-78
2021/06/29 01:44:29;;;;;;;;;;;16.90;99.90;;;;;;4939371;29;19933;-78
2021/06/29 01:46:57;;;;;;;;;;;16.90;99.90;;;;;;4923108;29;19933;-79
2021/06/29 01:49:27;;;;;;;;;;;16.90;99.90;;;;;;4922789;29;19926;-80
2021/06/29 01:51:54;;;;;;;;;;;16.90;99.90;;;;;;4922831;29;20049;-79
2021/06/29 01:54:22;;;;;;;;;;;17.00;99.90;;;;;;4938500;29;20013;-78
2021/06/29 01:56:53;;;;;;;;;;;16.90;99.90;;;;;;4938558;29;19927;-78
2021/06/29 01:59:22;;;;;;;;;;;17.00;99.90;;;;;;4923178;29;20394;-78
2021/06/29 02:01:48;;;;;;;;;;;16.90;99.90;;;;;;4922715;29;19926;-80
2021/06/29 02:04:15;;;;;;;;;;;16.90;99.90;;;;;;4923383;28;19969;-79
2021/06/29 02:06:42;;;;;;;;;;;16.90;99.90;;;;;;4923626;29;19927;-79
2021/06/29 02:09:10;;;;;;;;;;;16.90;99.90;;;;;;4939919;29;20025;-78
2021/06/29 02:11:37;;;;;;;;;;;16.90;99.90;;;;;;4940073;29;20033;-78
2021/06/29 02:14:09;;;;;;;;;;;16.90;99.90;;;;;;4940849;28;19933;-78
2021/06/29 02:16:35;;;;;;;;;;;16.80;99.90;;;;;;4940205;29;19933;-79
2021/06/29 02:19:02;;;;;;;;;;;16.80;99.90;;;;;;4923828;29;20013;-79
2021/06/29 02:21:29;;;;;;;;;;;16.80;99.90;;;;;;4923608;29;19926;-79
2021/06/29 02:24:01;;;;;;;;;;;16.80;99.90;;;;;;4939667;28;19937;-79
2021/06/29 02:26:32;;;;;;;;;;;16.80;99.90;;;;;;4924909;29;19933;-79
2021/06/29 02:28:59;;;;;;;;;;;16.80;99.90;;;;;;4938847;29;20476;-78
2021/06/29 02:31:30;;;;;;;;;;;16.80;99.90;;;;;;4923008;29;19930;-79
2021/06/29 02:33:57;;;;;;;;;;;16.80;99.90;;;;;;4926185;28;19930;-79
2021/06/29 02:36:24;;;;;;;;;;;16.90;99.90;;;;;;4925935;29;20033;-79
2021/06/29 02:38:50;;;;;;;;;;;16.80;99.90;;;;;;4925642;29;19969;-79
2021/06/29 02:41:17;;;;;;;;;;;16.90;99.90;;;;;;4925041;29;19933;-79
2021/06/29 02:43:49;;;;;;;;;;;16.90;99.90;;;;;;4926050;29;19926;-78
2021/06/29 02:46:16;;;;;;;;;;;17.00;99.90;;;;;;4925611;29;20001;-79
2021/06/29 02:48:43;;;;;;;;;;;17.00;99.90;;;;;;4958608;29;19993;-79
2021/06/29 02:51:10;;;;;;;;;;;17.00;99.90;;;;;;4925246;29;19939;-79
2021/06/29 02:53:42;;;;;;;;;;;17.00;99.90;;;;;;4941062;29;19930;-79
2021/06/29 02:56:37;;;;;;;;;;;17.00;99.90;;;;;;4940815;29;20026;-79
2021/06/29 02:58:55;;;;;;;;;;;17.00;99.90;;;;;;4957919;29;20378;-79
2021/06/29 03:01:22;;;;;;;;;;;17.00;99.90;;;;;;4941049;29;20022;-78
2021/06/29 03:03:53;;;;;;;;;;;17.00;99.90;;;;;;4941310;29;19932;-78
2021/06/29 03:06:20;;;;;;;;;;;17.00;99.90;;;;;;4924861;29;20404;-78
2021/06/29 03:08:46;;;;;;;;;;;17.00;99.90;;;;;;4925261;29;19926;-78
2021/06/29 03:11:18;;;;;;;;;;;16.90;99.90;;;;;;4941832;29;19927;-78
2021/06/29 03:13:45;;;;;;;;;;;16.90;99.90;;;;;;4941182;29;20389;-78
2021/06/29 03:16:12;;;;;;;;;;;17.00;99.90;;;;;;4924879;29;19945;-78
2021/06/29 03:18:38;;;;;;;;;;;17.00;99.90;;;;;;4925135;29;20006;-79
2021/06/29 03:21:07;;;;;;;;;;;16.90;99.90;;;;;;4924218;29;19933;-79
2021/06/29 03:23:38;;;;;;;;;;;16.90;99.90;;;;;;4925213;29;20028;-79
2021/06/29 03:26:05;;;;;;;;;;;16.90;99.90;;;;;;4924475;29;19949;-79
2021/06/29 03:28:37;;;;;;;;;;;16.90;99.90;;;;;;4925958;29;20305;-79
2021/06/29 03:31:04;;;;;;;;;;;16.90;99.90;;;;;;4925085;29;20025;-79
2021/06/29 03:33:35;;;;;;;;;;;16.90;99.90;;;;;;4940299;29;19985;-78
2021/06/29 03:36:02;;;;;;;;;;;16.90;99.90;;;;;;4940253;29;19969;-78
2021/06/29 03:38:29;;;;;;;;;;;16.90;99.90;;;;;;4924872;29;19966;-78
2021/06/29 03:40:56;;;;;;;;;;;16.80;99.90;;;;;;4940501;29;20037;-79
2021/06/29 03:43:22;;;;;;;;;;;16.80;99.90;;;;;;4940751;29;19962;-78
2021/06/29 03:45:49;;;;;;;;;;;16.80;99.90;;;;;;4924850;29;19958;-80
2021/06/29 03:48:22;;;;;;;;;;;16.90;99.90;;;;;;4925913;29;20050;-79
2021/06/29 03:50:49;;;;;;;;;;;16.80;99.90;;;;;;4924208;29;20611;-78
2021/06/29 03:53:21;;;;;;;;;;;16.90;99.90;;;;;;4924951;29;19930;-78
2021/06/29 03:55:49;;;;;;;;;;;16.90;99.90;;;;;;4923887;29;19927;-79
2021/06/29 03:58:21;;;;;;;;;;;17.00;99.90;;;;;;4939867;29;20017;-78
2021/06/29 04:00:47;;;;;;;;;;;16.90;99.90;;;;;;4923883;29;20053;-78
2021/06/29 04:03:14;;;;;;;;;;;16.90;99.90;;;;;;4924369;29;20029;-79
2021/06/29 04:05:41;;;;;;;;;;;16.80;99.90;;;;;;4923521;29;20025;-79
2021/06/29 04:08:08;;;;;;;;;;;16.80;99.90;;;;;;4939405;29;19970;-78
2021/06/29 04:10:35;;;;;;;;;;;16.70;99.90;;;;;;4940553;29;19950;-78
2021/06/29 04:13:07;;;;;;;;;;;16.80;99.90;;;;;;4926690;29;20289;-77
2021/06/29 04:15:33;;;;;;;;;;;16.70;99.90;;;;;;4924449;29;19926;-78
2021/06/29 04:18:00;;;;;;;;;;;16.70;99.90;;;;;;4923275;29;19932;-78
2021/06/29 04:20:27;;;;;;;;;;;16.70;99.90;;;;;;4924442;29;19962;-78
2021/06/29 04:22:53;;;;;;;;;;;16.70;99.90;;;;;;4940573;29;20013;-78
2021/06/29 04:25:20;;;;;;;;;;;16.70;99.90;;;;;;4942020;29;20278;-78
2021/06/29 04:27:47;;;;;;;;;;;16.70;99.90;;;;;;4940814;29;19973;-79
2021/06/29 04:30:18;;;;;;;;;;;16.70;99.90;;;;;;4926494;29;20524;-78
2021/06/29 04:32:45;;;;;;;;;;;16.70;99.90;;;;;;4941248;29;20025;-78
2021/06/29 04:35:17;;;;;;;;;;;16.70;99.90;;;;;;4941692;29;20028;-78
2021/06/29 04:37:43;;;;;;;;;;;16.70;99.90;;;;;;4959244;29;20029;-79
2021/06/29 04:40:16;;;;;;;;;;;16.70;99.90;;;;;;4941722;29;19930;-79
2021/06/29 04:42:48;;;;;;;;;;;16.70;99.90;;;;;;4926369;29;19977;-78
2021/06/29 04:45:15;;;;;;;;;;;16.70;99.90;;;;;;4940435;29;19926;-80
2021/06/29 04:47:48;;;;;;;;;;;16.80;99.90;;;;;;4939876;29;19930;-77
2021/06/29 04:50:23;;;;;;;;;;;16.70;99.90;;;;;;4941008;29;19946;-79
2021/06/29 04:52:50;;;;;;;;;;;16.80;99.90;;;;;;4940942;29;19977;-80
2021/06/29 04:55:22;;;;;;;;;;;16.80;99.90;;;;;;4925124;29;19985;-79
2021/06/29 05:09:47;;;;;;;;;;;17.00;99.90;;;;;;4976064;28;19930;-81
2021/06/29 06:32:05;;;;;;;;;;;17.90;99.90;;;;;;4939525;29;20362;-81
2021/06/29 06:34:37;;;;;;;;;;;18.00;99.90;;;;;;4894546;29;19974;-80
2021/06/29 06:37:04;;;;;;;;;;;18.00;99.90;;;;;;4904548;29;19934;-81
2021/06/29 06:39:31;;;;;;;;;;;18.10;99.90;;;;;;4904711;29;19927;-81
2021/06/29 06:41:58;;;;;;;;;;;18.20;99.90;;;;;;4904396;29;19927;-81
2021/06/29 06:44:25;;;;;;;;;;;18.20;99.90;;;;;;4904453;29;19928;-81
2021/06/29 06:46:52;;;;;;;;;;;18.20;99.90;;;;;;4904998;29;19927;-81
2021/06/29 06:49:24;;;;;;;;;;;18.10;99.90;;;;;;4905834;29;19927;-81
2021/06/29 06:51:51;;;;;;;;;;;18.10;99.90;;;;;;4908513;29;20019;-81
2021/06/29 06:54:19;;;;;;;;;;;18.20;99.90;;;;;;4912988;29;19959;-81
2021/06/29 06:56:46;;;;;;;;;;;18.20;99.90;;;;;;4911604;29;19927;-81
2021/06/29 06:59:13;;;;;;;;;;;18.20;99.90;;;;;;4927043;29;19931;-81
2021/06/29 07:01:42;;;;;;;;;;;18.30;99.90;;;;;;4906363;29;19934;-81
2021/06/29 07:04:10;;;;;;;;;;;18.30;99.90;;;;;;4920386;29;20021;-81
2021/06/29 07:06:37;;;;;;;;;;;18.30;99.90;;;;;;4920241;29;19974;-81
2021/06/29 07:09:10;;;;;;;;;;;18.30;99.90;;;;;;4905191;29;19931;-81
2021/06/29 07:11:42;;;;;;;;;;;18.30;99.90;;;;;;4905191;29;20394;-81
2021/06/29 07:14:11;;;;;;;;;;;18.30;99.90;;;;;;4904078;29;19931;-81
2021/06/29 07:16:38;;;;;;;;;;;18.30;99.90;;;;;;4919873;29;19935;-81
2021/06/29 07:19:06;;;;;;;;;;;18.40;99.90;;;;;;4919779;29;19927;-81
2021/06/29 07:21:33;;;;;;;;;;;18.50;99.90;;;;;;4919664;29;19927;-81
2021/06/29 07:24:05;;;;;;;;;;;18.60;99.90;;;;;;4904525;29;20026;-81
2021/06/29 07:26:32;;;;;;;;;;;18.70;99.90;;;;;;4904154;29;20302;-81
2021/06/29 07:28:59;;;;;;;;;;;18.80;99.90;;;;;;4904355;29;19974;-81
2021/06/29 07:31:26;;;;;;;;;;;18.90;99.90;;;;;;4904381;29;19927;-81
2021/06/29 07:33:53;;;;;;;;;;;19.00;99.90;;;;;;4918741;29;19927;-80
2021/06/29 07:36:26;;;;;;;;;;;19.10;99.90;;;;;;4904388;29;19967;-81
2021/06/29 07:38:58;;;;;;;;;;;19.20;99.90;;;;;;4919527;29;20023;-81
2021/06/29 07:41:25;;;;;;;;;;;19.30;99.90;;;;;;4903759;29;19970;-81
2021/06/29 07:43:52;;;;;;;;;;;19.40;99.90;;;;;;4904375;29;20030;-80
2021/06/29 07:46:19;;;;;;;;;;;19.40;99.90;;;;;;4919086;29;19931;-81
2021/06/29 07:48:46;;;;;;;;;;;19.50;99.90;;;;;;4903345;29;19935;-81
2021/06/29 07:51:14;;;;;;;;;;;19.60;99.90;;;;;;4903126;29;19935;-81
2021/06/29 07:53:41;;;;;;;;;;;19.70;99.90;;;;;;4919027;29;19952;-81
2021/06/29 07:56:14;;;;;;;;;;;19.80;99.90;;;;;;4903279;29;19927;-81
2021/06/29 07:58:42;;;;;;;;;;;19.90;99.90;;;;;;4903645;29;20298;-81
2021/06/29 08:01:09;;;;;;;;;;;20.00;99.90;;;;;;4919573;29;19970;-81
2021/06/29 08:03:37;;;;;;;;;;;20.10;99.90;;;;;;4903971;29;19970;-81
2021/06/29 08:06:04;;;;;;;;;;;20.10;99.90;;;;;;4903987;29;19935;-81
2021/06/29 08:08:31;;;;;;;;;;;20.20;99.90;;;;;;4904448;29;19927;-81
2021/06/29 08:10:59;;;;;;;;;;;20.30;99.90;;;;;;4920005;29;19950;-81
2021/06/29 08:13:31;;;;;;;;;;;20.40;99.90;;;;;;4904865;29;19998;-81
2021/06/29 08:15:59;;;;;;;;;;;20.40;99.90;;;;;;4919865;29;19998;-81
2021/06/29 08:18:30;;;;;;;;;;;20.50;99.90;;;;;;4904573;29;19970;-81
2021/06/29 08:20:58;;;;;;;;;;;20.50;99.90;;;;;;4919535;29;20407;-81
2021/06/29 08:23:26;;;;;;;;;;;20.50;99.90;;;;;;4919475;29;19927;-81
2021/06/29 08:25:58;;;;;;;;;;;20.60;99.90;;;;;;4903856;29;19931;-81
2021/06/29 08:28:27;;;;;;;;;;;20.70;99.90;;;;;;4902964;29;22402;-81
2021/06/29 08:31:00;;;;;;;;;;;20.80;99.90;;;;;;4902973;29;20425;-82
2021/06/29 08:33:27;;;;;;;;;;;21.00;99.90;;;;;;4902850;29;19927;-81
2021/06/29 08:35:56;;;;;;;;;;;21.10;99.90;;;;;;4919063;29;19962;-81
2021/06/29 08:38:24;;;;;;;;;;;21.30;99.90;;;;;;4919141;29;20422;-82
2021/06/29 08:40:51;;;;;;;;;;;21.40;99.90;;;;;;4902832;29;19938;-82
2021/06/29 08:43:18;;;;;;;;;;;21.40;99.90;;;;;;4903194;29;19952;-81
2021/06/29 08:45:45;;;;;;;;;;;21.50;99.90;;;;;;4902980;29;19927;-82
2021/06/29 08:48:12;;;;;;;;;;;21.60;99.90;;;;;;4902481;29;19934;-82
2021/06/29 08:50:40;;;;;;;;;;;21.70;99.90;;;;;;4902063;29;20382;-81
2021/06/29 08:53:08;;;;;;;;;;;21.80;99.90;;;;;;4902316;29;19974;-81
2021/06/29 08:55:40;;;;;;;;;;;21.80;99.90;;;;;;4910182;29;20379;-82
2021/06/29 08:58:08;;;;;;;;;;;21.90;99.90;;;;;;4917711;29;19927;-82
2021/06/29 09:00:35;;;;;;;;;;;22.10;99.90;;;;;;4902330;29;19927;-82
2021/06/29 09:03:02;;;;;;;;;;;22.20;99.90;;;;;;4916608;29;19934;-81
2021/06/29 09:05:30;;;;;;;;;;;22.30;99.90;;;;;;4901210;29;19933;-81
2021/06/29 09:08:05;;;;;;;;;;;22.40;99.90;;;;;;4900947;29;19931;-81
2021/06/29 09:10:32;;;;;;;;;;;22.40;99.90;;;;;;4917769;29;20022;-81
2021/06/29 09:13:00;;;;;;;;;;;22.60;99.90;;;;;;4901339;29;19927;-81
2021/06/29 09:15:29;;;;;;;;;;;22.70;99.90;;;;;;4916744;29;20022;-82
2021/06/29 09:18:04;;;;;;;;;;;22.80;99.90;;;;;;4900932;29;20391;-81
2021/06/29 09:20:36;;;;;;;;;;;22.80;99.90;;;;;;4915997;29;19934;-81
2021/06/29 09:23:15;;;;;;;;;;;22.90;99.90;;;;;;4900532;29;19970;-81
2021/06/29 09:25:50;;;;;;;;;;;23.00;99.90;;;;;;4915845;29;19927;-81
2021/06/29 09:28:18;;;;;;;;;;;23.10;99.90;;;;;;4916093;29;20022;-82
2021/06/29 09:30:48;;;;;;;;;;;23.20;99.90;;;;;;4915893;29;19927;-81
2021/06/29 09:33:20;;;;;;;;;;;23.30;99.90;;;;;;4916007;29;19927;-81
2021/06/29 09:35:49;;;;;;;;;;;23.40;99.90;;;;;;4915987;29;20438;-81
2021/06/29 09:38:21;;;;;;;;;;;23.40;99.90;;;;;;4915803;29;19935;-81
2021/06/29 09:41:14;;;;;;;;;;;23.50;99.90;;;;;;4915735;29;19943;-82
2021/06/29 09:43:51;;;;;;;;;;;23.60;99.90;;;;;;4903818;29;19931;-81
2021/06/29 09:46:18;;;;;;;;;;;23.60;99.90;;;;;;4919036;29;19927;-81
2021/06/29 09:48:46;;;;;;;;;;;23.80;99.90;;;;;;4904242;29;19951;-81
2021/06/29 09:51:20;;;;;;;;;;;24.00;99.90;;;;;;4919029;29;20033;-81
2021/06/29 09:53:53;;;;;;;;;;;24.10;99.90;;;;;;4904138;29;19931;-81
2021/06/29 09:56:23;;;;;;;;;;;24.30;99.90;;;;;;4919445;29;20021;-81
2021/06/29 09:58:53;;;;;;;;;;;24.40;99.90;;;;;;4903716;29;20022;-81
2021/06/29 10:01:22;;;;;;;;;;;24.50;99.90;;;;;;4920253;29;20029;-80
2021/06/29 10:03:54;;;;;;;;;;;24.60;99.90;;;;;;4906917;29;19934;-81
2021/06/29 10:06:27;;;;;;;;;;;24.70;99.90;;;;;;4905122;29;19927;-80
2021/06/29 10:09:00;;;;;;;;;;;24.70;99.90;;;;;;4920655;29;20050;-80
2021/06/29 10:11:31;;;;;;;;;;;24.80;99.90;;;;;;4919897;29;19931;-80
2021/06/29 10:14:00;;;;;;;;;;;24.90;99.90;;;;;;4919184;29;19927;-79
2021/06/29 10:16:30;;;;;;;;;;;24.90;99.90;;;;;;4919260;29;19927;-80
2021/06/29 10:19:59;;;;;;;;;;;25.00;99.90;;;;;;4903233;29;20306;-80
2021/06/29 10:46:10;;;;;;;;;;;25.70;99.90;;;;;;4963067;28;19917;-79
2021/06/29 11:13:16;;;;;;;;;;;26.20;99.90;;;;;;4958655;29;19930;-80
2021/06/29 11:17:06;;;;;;;;;;;26.30;99.90;;;;;;4948463;29;19922;-79
2021/06/29 11:25:18;;;;;;;;;;;26.60;99.90;;;;;;4957883;29;19941;-78
2021/06/29 12:04:09;;;;;;;;;;;27.60;98.00;;;;;;4897408;29;19986;-83
2021/06/29 12:06:36;;;;;;;;;;;27.70;99.50;;;;;;4917710;29;20301;-82
2021/06/29 12:09:03;;;;;;;;;;;27.70;98.30;;;;;;4919084;29;19973;-81
2021/06/29 12:11:34;;;;;;;;;;;27.80;98.40;;;;;;4907121;29;19927;-82
2021/06/29 12:14:17;;;;;;;;;;;27.90;96.80;;;;;;4921136;29;19927;-81
2021/06/29 12:16:44;;;;;;;;;;;27.90;96.90;;;;;;4922724;29;19981;-84
2021/06/29 12:19:11;;;;;;;;;;;28.00;97.40;;;;;;4923226;29;20410;-82
2021/06/29 12:21:47;;;;;;;;;;;28.10;97.10;;;;;;4906429;29;19998;-82
2021/06/29 12:24:14;;;;;;;;;;;28.20;96.80;;;;;;4921489;29;19981;-84
2021/06/29 12:26:40;;;;;;;;;;;28.30;97.00;;;;;;4919806;29;20335;-84
2021/06/29 12:29:07;;;;;;;;;;;28.20;93.80;;;;;;4922607;29;19990;-82
2021/06/29 12:31:34;;;;;;;;;;;28.30;94.80;;;;;;4922313;29;19928;-81
2021/06/29 12:34:00;;;;;;;;;;;28.20;93.50;;;;;;4922714;29;20093;-81
2021/06/29 12:36:32;;;;;;;;;;;28.20;93.20;;;;;;4905062;29;20025;-82
2021/06/29 12:39:06;;;;;;;;;;;28.20;93.80;;;;;;4923280;29;19930;-80
2021/06/29 12:41:38;;;;;;;;;;;28.40;93.40;;;;;;4959987;29;19997;-82
2021/06/29 12:44:06;;;;;;;;;;;28.50;91.60;;;;;;4943665;28;20397;-82
2021/06/29 12:46:34;;;;;;;;;;;28.50;91.50;;;;;;4943593;29;19969;-82
2021/06/29 12:49:11;;;;;;;;;;;28.50;88.30;;;;;;4942461;29;20024;-81
2021/06/29 12:51:45;;;;;;;;;;;28.40;90.60;;;;;;4940398;29;19950;-81
2021/06/29 12:54:13;;;;;;;;;;;28.50;91.70;;;;;;4943949;28;19933;-83
2021/06/29 12:56:41;;;;;;;;;;;28.60;90.90;;;;;;4961172;29;19992;-82
2021/06/29 12:59:09;;;;;;;;;;;28.80;91.00;;;;;;4943827;29;19966;-83
2021/06/29 13:01:38;;;;;;;;;;;29.00;91.40;;;;;;4940776;29;19950;-82
2021/06/29 13:04:11;;;;;;;;;;;29.10;91.00;;;;;;4941060;28;19926;-83
2021/06/29 13:06:44;;;;;;;;;;;29.10;90.30;;;;;;4956851;29;20033;-83
2021/06/29 13:09:12;;;;;;;;;;;28.80;89.70;;;;;;4956303;29;19927;-83
2021/06/29 13:11:40;;;;;;;;;;;28.50;89.30;;;;;;4939477;29;20025;-83
2021/06/29 13:14:08;;;;;;;;;;;28.10;91.40;;;;;;4956485;28;19930;-84
2021/06/29 13:16:36;;;;;;;;;;;27.80;90.20;;;;;;4941038;29;20021;-82
2021/06/29 13:19:14;;;;;;;;;;;27.60;89.00;;;;;;4941758;29;19955;-83
2021/06/29 13:21:58;;;;;;;;;;;27.40;91.20;;;;;;4943781;29;19926;-84
2021/06/29 13:24:25;;;;;;;;;;;27.10;92.00;;;;;;4943378;29;20066;-82
2021/06/29 13:27:03;;;;;;;;;;;26.90;91.80;;;;;;4944355;29;19989;-82
2021/06/29 13:29:36;;;;;;;;;;;26.80;92.30;;;;;;4945346;29;19934;-83
2021/06/29 13:32:05;;;;;;;;;;;26.60;93.90;;;;;;4960976;28;19931;-84
2021/06/29 13:34:34;;;;;;;;;;;26.40;94.00;;;;;;4923940;29;19966;-83
2021/06/29 13:37:17;;;;;;;;;;;26.30;95.10;;;;;;4942867;29;19935;-76
2021/06/29 13:56:07;;;;;;;;;;;25.40;97.00;;;;;;5014324;23;19926;-79
2021/06/29 13:58:36;;;;;;;;;;;25.10;97.40;;;;;;4952265;28;19993;-81
2021/06/29 14:01:08;;;;;;;;;;;24.50;99.90;;;;;;4951218;29;19954;-81
2021/06/29 14:03:41;;;;;;;;;;;23.70;99.30;;;;;;4947235;29;19930;-81
2021/06/29 14:06:09;;;;;;;;;;;22.10;99.90;;;;;;4944916;29;20305;-81
2021/06/29 14:08:40;;;;;;;;;;;20.50;99.90;;;;;;4962597;28;19926;-80
2021/06/29 14:11:09;;;;;;;;;;;18.80;99.90;;;;;;4940177;29;19927;-80
2021/06/29 14:13:44;;;;;;;;;;;17.30;99.90;;;;;;4952498;29;20346;-80
2021/06/29 14:16:15;;;;;;;;;;;16.10;99.90;;;;;;4924080;29;19927;-79
2021/06/29 14:18:45;;;;;;;;;;;15.20;99.90;;;;;;4938973;29;20014;-79
2021/06/29 14:21:17;;;;;;;;;;;14.60;99.90;;;;;;4928049;29;19998;-79
2021/06/29 14:23:50;;;;;;;;;;;14.10;99.90;;;;;;4950028;29;19933;-79
2021/06/29 14:26:18;;;;;;;;;;;14.00;99.90;;;;;;4941453;29;20030;-79
2021/06/29 14:28:45;;;;;;;;;;;13.90;99.90;;;;;;4925172;29;19974;-79
2021/06/29 14:31:13;;;;;;;;;;;13.90;99.90;;;;;;4927136;29;19969;-79
2021/06/29 14:33:41;;;;;;;;;;;14.00;99.90;;;;;;4943337;29;19954;-79
2021/06/29 14:36:10;;;;;;;;;;;14.10;99.90;;;;;;4945727;29;19927;-79
2021/06/29 14:38:38;;;;;;;;;;;14.10;99.90;;;;;;4948709;29;19933;-79
2021/06/29 14:41:05;;;;;;;;;;;14.30;99.90;;;;;;4931814;29;20324;-79
2021/06/29 14:43:35;;;;;;;;;;;14.40;99.90;;;;;;4955704;28;19950;-79
2021/06/29 14:46:03;;;;;;;;;;;14.40;99.90;;;;;;4948799;28;19961;-80
2021/06/29 14:48:35;;;;;;;;;;;14.50;99.90;;;;;;4957173;28;19986;-79
2021/06/29 14:51:02;;;;;;;;;;;14.50;99.90;;;;;;4923107;29;19927;-79
2021/06/29 14:53:30;;;;;;;;;;;14.50;99.90;;;;;;4930480;29;19994;-79
2021/06/29 14:55:57;;;;;;;;;;;14.60;99.90;;;;;;4925733;29;19959;-79
2021/06/29 14:58:24;;;;;;;;;;;14.60;99.90;;;;;;4941468;29;20540;-79
2021/06/29 15:00:51;;;;;;;;;;;14.70;99.90;;;;;;4927473;29;20033;-80
2021/06/29 15:03:18;;;;;;;;;;;14.70;99.90;;;;;;4942617;29;19934;-79
2021/06/29 15:05:45;;;;;;;;;;;14.70;99.90;;;;;;4943836;29;19935;-79
2021/06/29 15:08:12;;;;;;;;;;;14.60;99.90;;;;;;4944195;29;19934;-80
2021/06/29 15:10:44;;;;;;;;;;;14.60;99.90;;;;;;4930847;29;19938;-80
2021/06/29 15:13:30;;;;;;;;;;;14.60;99.90;;;;;;4954148;29;20334;-79
2021/06/29 15:16:37;;;;;;;;;;;14.60;99.90;;;;;;4933842;29;19943;-79
2021/06/29 15:19:05;;;;;;;;;;;14.50;99.90;;;;;;4938341;29;19934;-79
2021/06/29 15:21:36;;;;;;;;;;;14.50;99.90;;;;;;4921570;29;20470;-79
2021/06/29 15:24:03;;;;;;;;;;;14.50;99.90;;;;;;4923331;29;19997;-78
2021/06/29 15:26:30;;;;;;;;;;;14.60;99.90;;;;;;4921759;29;19930;-79
2021/06/29 15:29:03;;;;;;;;;;;14.70;99.90;;;;;;4935759;29;19958;-79
2021/06/29 15:31:35;;;;;;;;;;;14.80;99.90;;;;;;4936371;29;20358;-79
2021/06/29 15:34:03;;;;;;;;;;;15.00;99.90;;;;;;4937179;29;19942;-78
2021/06/29 15:36:30;;;;;;;;;;;15.10;99.90;;;;;;4946017;29;19934;-79
2021/06/29 15:39:24;;;;;;;;;;;15.20;99.90;;;;;;4913230;29;19967;-79
2021/06/29 15:41:51;;;;;;;;;;;15.30;99.90;;;;;;4942696;29;19926;-78
2021/06/29 15:44:19;;;;;;;;;;;15.50;99.90;;;;;;4946580;29;19927;-79
2021/06/29 15:46:46;;;;;;;;;;;15.50;99.90;;;;;;4928623;29;19993;-79
2021/06/29 15:49:17;;;;;;;;;;;15.30;99.90;;;;;;4942036;29;19990;-77
2021/06/29 15:51:44;;;;;;;;;;;15.30;99.90;;;;;;4934919;29;20022;-77
2021/06/29 15:54:15;;;;;;;;;;;15.30;99.90;;;;;;4934562;29;19933;-77
2021/06/29 15:56:47;;;;;;;;;;;15.30;99.90;;;;;;4944187;28;19982;-79
2021/06/29 15:59:15;;;;;;;;;;;15.20;99.90;;;;;;4920362;29;19927;-80
2021/06/29 16:01:43;;;;;;;;;;;15.20;99.90;;;;;;4937812;29;19927;-80
2021/06/29 16:04:15;;;;;;;;;;;15.10;99.90;;;;;;4940071;28;20282;-80
2021/06/29 16:06:44;;;;;;;;;;;15.10;99.90;;;;;;4921631;29;19978;-80
2021/06/29 16:09:13;;;;;;;;;;;15.10;99.90;;;;;;4937104;29;20017;-80
2021/06/29 16:11:40;;;;;;;;;;;15.10;99.90;;;;;;4921474;29;20286;-80
2021/06/29 16:14:10;;;;;;;;;;;15.10;99.90;;;;;;4936875;29;19942;-80
2021/06/29 16:16:37;;;;;;;;;;;15.10;99.90;;;;;;4922015;29;19927;-80
2021/06/29 16:19:07;;;;;;;;;;;15.20;99.90;;;;;;4936913;29;19927;-80
2021/06/29 16:21:35;;;;;;;;;;;15.30;99.90;;;;;;4921575;29;19984;-80
2021/06/29 16:24:08;;;;;;;;;;;15.30;99.90;;;;;;4922136;29;19934;-80
2021/06/29 16:26:36;;;;;;;;;;;15.30;99.90;;;;;;4921359;29;20013;-80
2021/06/29 16:29:08;;;;;;;;;;;15.30;99.90;;;;;;4939957;29;19981;-80
2021/06/29 16:31:36;;;;;;;;;;;15.20;99.90;;;;;;4923291;29;19926;-80
2021/06/29 16:34:04;;;;;;;;;;;15.20;99.90;;;;;;4936305;29;20304;-81
2021/06/29 16:36:32;;;;;;;;;;;15.10;99.90;;;;;;4935950;29;19933;-80
2021/06/29 16:39:00;;;;;;;;;;;15.10;99.90;;;;;;4936470;29;19930;-80
2021/06/29 16:41:29;;;;;;;;;;;15.10;99.90;;;;;;4935907;29;19962;-80
2021/06/29 16:43:57;;;;;;;;;;;15.10;99.90;;;;;;4919661;29;19998;-80
2021/06/29 16:46:25;;;;;;;;;;;15.10;99.90;;;;;;4919616;29;19927;-80
2021/06/29 16:48:53;;;;;;;;;;;15.20;99.90;;;;;;4919232;29;19926;-80
2021/06/29 16:51:21;;;;;;;;;;;15.30;99.90;;;;;;4918580;29;19937;-80
2021/06/29 16:53:50;;;;;;;;;;;15.40;99.90;;;;;;4919506;29;19934;-80
2021/06/29 16:56:18;;;;;;;;;;;15.50;99.90;;;;;;4919271;29;20026;-80
2021/06/29 16:58:51;;;;;;;;;;;15.60;99.90;;;;;;4919377;29;19933;-80
2021/06/29 17:01:25;;;;;;;;;;;15.80;99.90;;;;;;4934923;29;20005;-80
2021/06/29 17:03:53;;;;;;;;;;;16.10;99.90;;;;;;4934945;29;19927;-80
2021/06/29 17:06:20;;;;;;;;;;;16.20;99.90;;;;;;4922020;28;19931;-79
2021/06/29 17:13:07;;;;;;;;;;;16.60;99.90;;;;;;4959442;28;19927;-78
2021/06/29 18:16:17;;;;;;;;;;;16.20;99.90;;;;;;4962604;28;19975;-78
2021/06/29 18:56:34;;;;;;;;;;;15.80;99.90;;;;;;4914694;28;19910;-77
2021/06/29 18:59:02;;;;;;;;;;;15.80;99.90;;;;;;4909818;29;20085;-79
2021/06/29 19:01:29;;;;;;;;;;;15.70;99.90;;;;;;4924431;29;19927;-80
2021/06/29 19:03:57;;;;;;;;;;;15.70;99.90;;;;;;4908601;29;19934;-80
2021/06/29 19:06:24;;;;;;;;;;;15.70;99.90;;;;;;4924433;29;20382;-79
2021/06/29 19:08:55;;;;;;;;;;;15.70;99.90;;;;;;4908349;29;19929;-80
2021/06/29 19:11:29;;;;;;;;;;;15.60;99.90;;;;;;4910584;29;19926;-80
2021/06/29 19:13:57;;;;;;;;;;;15.50;99.90;;;;;;4908832;29;20452;-80
2021/06/29 19:16:25;;;;;;;;;;;15.40;99.90;;;;;;4925323;29;19927;-80
2021/06/29 19:18:53;;;;;;;;;;;15.40;99.90;;;;;;4924839;29;20274;-80
2021/06/29 19:21:22;;;;;;;;;;;15.30;99.90;;;;;;4909538;29;19927;-80
2021/06/29 19:23:55;;;;;;;;;;;15.20;99.90;;;;;;4910043;29;19934;-80
2021/06/29 19:26:24;;;;;;;;;;;15.20;99.90;;;;;;4925353;29;19969;-79
2021/06/29 19:28:51;;;;;;;;;;;15.10;99.90;;;;;;4909330;29;19961;-79
2021/06/29 19:31:20;;;;;;;;;;;15.10;99.90;;;;;;4940363;29;19974;-80
2021/06/29 19:33:53;;;;;;;;;;;15.10;99.90;;;;;;4908919;29;19931;-80